sensor_id;sensor_type;location;lat;lon;timestamp;P1;durP1;ratioP1;P2;durP2;ratioP2
47429;SDS011;33181;49.246;7.372;2023-08-24T00:02:06;9.77;;;6.00;;
47429;SDS011;33181;49.246;7.372;2023-08-24T00:04:32;11.60;;;6.83;;
47429;SDS011;33181;49.246;7.372;2023-08-24T00:06:59;9.00;;;6.43;;
47429;SDS011;33181;49.246;7.372;2023-08-24T00:09:25;10.23;;;6.67;;
47429;SDS011;33181;49.246;7.372;2023-08-24T00:11:51;7.20;;;6.50;;
47429;SDS011;33181;49.246;7.372;2023-08-24T00:14:18;8.67;;;6.47;;
47429;SDS011;33181;49.246;7.372;2023-08-24T00:16:43;6.33;;;5.73;;
47429;SDS011;33181;49.246;7.372;2023-08-24T00:19:09;7.30;;;6.03;;
47429;SDS011;33181;49.246;7.372;2023-08-24T00:21:35;6.60;;;5.83;;
47429;SDS011;33181;49.246;7.372;2023-08-24T00:24:01;7.60;;;6.47;;
47429;SDS011;33181;49.246;7.372;2023-08-24T00:26:27;6.70;;;5.97;;
47429;SDS011;33181;49.246;7.372;2023-08-24T00:28:53;7.20;;;6.03;;
47429;SDS011;33181;49.246;7.372;2023-08-24T00:31:19;6.70;;;6.00;;
47429;SDS011;33181;49.246;7.372;2023-08-24T00:33:44;7.00;;;6.00;;
47429;SDS011;33181;49.246;7.372;2023-08-24T00:36:10;8.27;;;6.13;;
47429;SDS011;33181;49.246;7.372;2023-08-24T00:38:36;9.00;;;6.40;;
47429;SDS011;33181;49.246;7.372;2023-08-24T00:41:02;10.10;;;6.00;;
47429;SDS011;33181;49.246;7.372;2023-08-24T00:43:28;8.70;;;5.77;;
47429;SDS011;33181;49.246;7.372;2023-08-24T00:45:55;9.23;;;6.30;;
47429;SDS011;33181;49.246;7.372;2023-08-24T00:48:25;6.77;;;5.90;;
47429;SDS011;33181;49.246;7.372;2023-08-24T00:50:54;7.00;;;6.27;;
47429;SDS011;33181;49.246;7.372;2023-08-24T00:53:24;9.10;;;6.67;;
47429;SDS011;33181;49.246;7.372;2023-08-24T00:55:51;7.20;;;5.80;;
47429;SDS011;33181;49.246;7.372;2023-08-24T00:58:17;7.50;;;5.87;;
47429;SDS011;33181;49.246;7.372;2023-08-24T01:00:44;6.20;;;5.60;;
47429;SDS011;33181;49.246;7.372;2023-08-24T01:03:10;7.27;;;5.73;;
47429;SDS011;33181;49.246;7.372;2023-08-24T01:05:38;8.60;;;5.87;;
47429;SDS011;33181;49.246;7.372;2023-08-24T01:08:04;7.40;;;5.97;;
47429;SDS011;33181;49.246;7.372;2023-08-24T01:10:37;8.87;;;5.83;;
47429;SDS011;33181;49.246;7.372;2023-08-24T01:13:14;7.77;;;6.00;;
47429;SDS011;33181;49.246;7.372;2023-08-24T01:15:55;5.80;;;5.10;;
47429;SDS011;33181;49.246;7.372;2023-08-24T01:18:31;7.20;;;6.00;;
47429;SDS011;33181;49.246;7.372;2023-08-24T01:20:58;5.90;;;5.30;;
47429;SDS011;33181;49.246;7.372;2023-08-24T01:23:32;6.70;;;5.63;;
47429;SDS011;33181;49.246;7.372;2023-08-24T01:26:19;6.50;;;5.50;;
47429;SDS011;33181;49.246;7.372;2023-08-24T01:28:46;8.67;;;5.23;;
47429;SDS011;33181;49.246;7.372;2023-08-24T01:31:13;8.10;;;6.27;;
47429;SDS011;33181;49.246;7.372;2023-08-24T01:33:44;9.20;;;5.93;;
47429;SDS011;33181;49.246;7.372;2023-08-24T01:36:11;8.00;;;6.60;;
47429;SDS011;33181;49.246;7.372;2023-08-24T01:38:39;13.20;;;6.13;;
47429;SDS011;33181;49.246;7.372;2023-08-24T01:41:09;8.40;;;6.13;;
47429;SDS011;33181;49.246;7.372;2023-08-24T01:43:34;7.60;;;5.83;;
47429;SDS011;33181;49.246;7.372;2023-08-24T01:46:03;7.90;;;6.50;;
47429;SDS011;33181;49.246;7.372;2023-08-24T01:48:30;7.83;;;6.13;;
47429;SDS011;33181;49.246;7.372;2023-08-24T01:50:57;7.43;;;5.80;;
47429;SDS011;33181;49.246;7.372;2023-08-24T01:53:25;8.27;;;5.87;;
47429;SDS011;33181;49.246;7.372;2023-08-24T01:55:53;7.53;;;6.43;;
47429;SDS011;33181;49.246;7.372;2023-08-24T01:58:18;7.57;;;6.00;;
47429;SDS011;33181;49.246;7.372;2023-08-24T02:00:45;10.17;;;6.17;;
47429;SDS011;33181;49.246;7.372;2023-08-24T02:03:11;6.80;;;5.97;;
47429;SDS011;33181;49.246;7.372;2023-08-24T02:05:36;7.80;;;5.80;;
47429;SDS011;33181;49.246;7.372;2023-08-24T02:08:02;6.47;;;5.60;;
47429;SDS011;33181;49.246;7.372;2023-08-24T02:10:28;9.63;;;6.20;;
47429;SDS011;33181;49.246;7.372;2023-08-24T02:12:54;10.40;;;7.17;;
47429;SDS011;33181;49.246;7.372;2023-08-24T02:15:20;11.37;;;6.90;;
47429;SDS011;33181;49.246;7.372;2023-08-24T02:17:46;11.80;;;7.20;;
47429;SDS011;33181;49.246;7.372;2023-08-24T02:20:11;8.50;;;7.27;;
47429;SDS011;33181;49.246;7.372;2023-08-24T02:22:37;8.50;;;7.17;;
47429;SDS011;33181;49.246;7.372;2023-08-24T02:25:04;9.90;;;7.03;;
47429;SDS011;33181;49.246;7.372;2023-08-24T02:27:31;8.73;;;7.33;;
47429;SDS011;33181;49.246;7.372;2023-08-24T02:29:58;14.77;;;7.70;;
47429;SDS011;33181;49.246;7.372;2023-08-24T02:32:24;8.73;;;7.20;;
47429;SDS011;33181;49.246;7.372;2023-08-24T02:34:49;13.67;;;7.10;;
47429;SDS011;33181;49.246;7.372;2023-08-24T02:37:16;8.80;;;7.50;;
47429;SDS011;33181;49.246;7.372;2023-08-24T02:39:42;15.17;;;7.13;;
47429;SDS011;33181;49.246;7.372;2023-08-24T02:42:07;9.77;;;7.70;;
47429;SDS011;33181;49.246;7.372;2023-08-24T02:44:36;8.97;;;7.30;;
47429;SDS011;33181;49.246;7.372;2023-08-24T02:47:02;8.23;;;7.27;;
47429;SDS011;33181;49.246;7.372;2023-08-24T02:49:27;9.43;;;7.30;;
47429;SDS011;33181;49.246;7.372;2023-08-24T02:51:53;12.47;;;8.00;;
47429;SDS011;33181;49.246;7.372;2023-08-24T02:54:19;9.20;;;7.80;;
47429;SDS011;33181;49.246;7.372;2023-08-24T02:56:45;9.33;;;7.30;;
47429;SDS011;33181;49.246;7.372;2023-08-24T02:59:11;15.10;;;7.80;;
47429;SDS011;33181;49.246;7.372;2023-08-24T03:01:36;9.73;;;7.20;;
47429;SDS011;33181;49.246;7.372;2023-08-24T03:04:03;10.60;;;7.10;;
47429;SDS011;33181;49.246;7.372;2023-08-24T03:06:31;12.17;;;7.87;;
47429;SDS011;33181;49.246;7.372;2023-08-24T03:08:59;8.33;;;7.17;;
47429;SDS011;33181;49.246;7.372;2023-08-24T03:11:29;11.00;;;6.90;;
47429;SDS011;33181;49.246;7.372;2023-08-24T03:13:54;7.03;;;6.33;;
47429;SDS011;33181;49.246;7.372;2023-08-24T03:16:20;7.80;;;6.57;;
47429;SDS011;33181;49.246;7.372;2023-08-24T03:18:46;7.87;;;7.07;;
47429;SDS011;33181;49.246;7.372;2023-08-24T03:21:12;8.00;;;6.43;;
47429;SDS011;33181;49.246;7.372;2023-08-24T03:23:38;9.77;;;6.70;;
47429;SDS011;33181;49.246;7.372;2023-08-24T03:26:04;7.67;;;6.87;;
47429;SDS011;33181;49.246;7.372;2023-08-24T03:28:30;9.87;;;7.43;;
47429;SDS011;33181;49.246;7.372;2023-08-24T03:30:58;8.53;;;7.03;;
47429;SDS011;33181;49.246;7.372;2023-08-24T03:33:23;14.40;;;7.20;;
47429;SDS011;33181;49.246;7.372;2023-08-24T03:35:51;8.00;;;6.87;;
47429;SDS011;33181;49.246;7.372;2023-08-24T03:38:17;11.53;;;7.43;;
47429;SDS011;33181;49.246;7.372;2023-08-24T03:40:43;9.23;;;6.93;;
47429;SDS011;33181;49.246;7.372;2023-08-24T03:43:08;7.80;;;6.10;;
47429;SDS011;33181;49.246;7.372;2023-08-24T03:45:34;6.70;;;6.03;;
47429;SDS011;33181;49.246;7.372;2023-08-24T03:48:00;7.33;;;6.37;;
47429;SDS011;33181;49.246;7.372;2023-08-24T03:50:26;6.70;;;6.00;;
47429;SDS011;33181;49.246;7.372;2023-08-24T03:52:52;7.40;;;6.60;;
47429;SDS011;33181;49.246;7.372;2023-08-24T03:55:19;7.00;;;6.30;;
47429;SDS011;33181;49.246;7.372;2023-08-24T03:57:46;7.80;;;6.27;;
47429;SDS011;33181;49.246;7.372;2023-08-24T04:00:12;9.53;;;6.53;;
47429;SDS011;33181;49.246;7.372;2023-08-24T04:02:39;8.07;;;6.27;;
47429;SDS011;33181;49.246;7.372;2023-08-24T04:05:08;11.00;;;6.63;;
47429;SDS011;33181;49.246;7.372;2023-08-24T04:07:34;7.87;;;6.50;;
47429;SDS011;33181;49.246;7.372;2023-08-24T04:10:04;9.13;;;6.80;;
47429;SDS011;33181;49.246;7.372;2023-08-24T04:12:31;8.03;;;6.70;;
47429;SDS011;33181;49.246;7.372;2023-08-24T04:14:58;9.37;;;6.10;;
47429;SDS011;33181;49.246;7.372;2023-08-24T04:17:24;8.23;;;6.20;;
47429;SDS011;33181;49.246;7.372;2023-08-24T04:19:50;9.00;;;6.80;;
47429;SDS011;33181;49.246;7.372;2023-08-24T04:22:16;7.30;;;5.93;;
47429;SDS011;33181;49.246;7.372;2023-08-24T04:24:41;8.20;;;6.40;;
47429;SDS011;33181;49.246;7.372;2023-08-24T04:27:07;6.97;;;6.23;;
47429;SDS011;33181;49.246;7.372;2023-08-24T04:29:33;6.30;;;5.53;;
47429;SDS011;33181;49.246;7.372;2023-08-24T04:31:59;8.77;;;6.40;;
47429;SDS011;33181;49.246;7.372;2023-08-24T04:34:25;7.50;;;6.60;;
47429;SDS011;33181;49.246;7.372;2023-08-24T04:36:51;8.50;;;6.40;;
47429;SDS011;33181;49.246;7.372;2023-08-24T04:39:17;11.00;;;6.27;;
47429;SDS011;33181;49.246;7.372;2023-08-24T04:41:45;6.17;;;5.57;;
47429;SDS011;33181;49.246;7.372;2023-08-24T04:44:11;7.37;;;6.33;;
47429;SDS011;33181;49.246;7.372;2023-08-24T04:46:37;7.30;;;6.03;;
47429;SDS011;33181;49.246;7.372;2023-08-24T04:49:03;9.40;;;7.23;;
47429;SDS011;33181;49.246;7.372;2023-08-24T04:51:29;12.73;;;7.60;;
47429;SDS011;33181;49.246;7.372;2023-08-24T04:53:54;11.40;;;7.50;;
47429;SDS011;33181;49.246;7.372;2023-08-24T04:56:20;9.00;;;7.00;;
47429;SDS011;33181;49.246;7.372;2023-08-24T04:58:53;9.40;;;7.07;;
47429;SDS011;33181;49.246;7.372;2023-08-24T05:01:21;7.83;;;6.80;;
47429;SDS011;33181;49.246;7.372;2023-08-24T05:03:51;10.80;;;6.53;;
47429;SDS011;33181;49.246;7.372;2023-08-24T05:06:18;7.70;;;6.47;;
47429;SDS011;33181;49.246;7.372;2023-08-24T05:08:45;11.40;;;7.50;;
47429;SDS011;33181;49.246;7.372;2023-08-24T05:11:11;8.40;;;7.00;;
47429;SDS011;33181;49.246;7.372;2023-08-24T05:13:42;9.27;;;7.80;;
47429;SDS011;33181;49.246;7.372;2023-08-24T05:16:09;9.20;;;7.30;;
47429;SDS011;33181;49.246;7.372;2023-08-24T05:18:35;9.07;;;6.83;;
47429;SDS011;33181;49.246;7.372;2023-08-24T05:21:04;11.50;;;6.87;;
47429;SDS011;33181;49.246;7.372;2023-08-24T05:23:31;8.43;;;7.20;;
47429;SDS011;33181;49.246;7.372;2023-08-24T05:25:58;12.60;;;6.83;;
47429;SDS011;33181;49.246;7.372;2023-08-24T05:28:25;9.83;;;7.33;;
47429;SDS011;33181;49.246;7.372;2023-08-24T05:30:52;11.57;;;6.77;;
47429;SDS011;33181;49.246;7.372;2023-08-24T05:33:19;6.97;;;6.17;;
47429;SDS011;33181;49.246;7.372;2023-08-24T05:35:46;9.23;;;7.10;;
47429;SDS011;33181;49.246;7.372;2023-08-24T05:38:13;8.00;;;6.80;;
47429;SDS011;33181;49.246;7.372;2023-08-24T05:40:39;8.80;;;7.33;;
47429;SDS011;33181;49.246;7.372;2023-08-24T05:43:07;8.23;;;6.90;;
47429;SDS011;33181;49.246;7.372;2023-08-24T05:45:34;8.47;;;6.47;;
47429;SDS011;33181;49.246;7.372;2023-08-24T05:48:00;11.73;;;7.30;;
47429;SDS011;33181;49.246;7.372;2023-08-24T05:50:27;8.07;;;6.87;;
47429;SDS011;33181;49.246;7.372;2023-08-24T05:52:53;7.90;;;7.00;;
47429;SDS011;33181;49.246;7.372;2023-08-24T05:55:18;8.73;;;6.47;;
47429;SDS011;33181;49.246;7.372;2023-08-24T05:57:44;7.27;;;6.50;;
47429;SDS011;33181;49.246;7.372;2023-08-24T06:00:11;7.90;;;7.00;;
47429;SDS011;33181;49.246;7.372;2023-08-24T06:02:38;9.70;;;7.37;;
47429;SDS011;33181;49.246;7.372;2023-08-24T06:05:05;9.77;;;6.73;;
47429;SDS011;33181;49.246;7.372;2023-08-24T06:07:32;12.97;;;8.40;;
47429;SDS011;33181;49.246;7.372;2023-08-24T06:10:00;10.73;;;8.63;;
47429;SDS011;33181;49.246;7.372;2023-08-24T06:12:26;11.93;;;7.63;;
47429;SDS011;33181;49.246;7.372;2023-08-24T06:14:51;15.37;;;7.27;;
47429;SDS011;33181;49.246;7.372;2023-08-24T06:17:17;10.30;;;6.43;;
47429;SDS011;33181;49.246;7.372;2023-08-24T06:19:43;10.70;;;6.60;;
47429;SDS011;33181;49.246;7.372;2023-08-24T06:22:09;7.83;;;7.03;;
47429;SDS011;33181;49.246;7.372;2023-08-24T06:24:35;10.33;;;6.43;;
47429;SDS011;33181;49.246;7.372;2023-08-24T06:27:01;10.33;;;6.17;;
47429;SDS011;33181;49.246;7.372;2023-08-24T06:29:28;7.80;;;6.47;;
47429;SDS011;33181;49.246;7.372;2023-08-24T06:31:54;8.17;;;6.10;;
47429;SDS011;33181;49.246;7.372;2023-08-24T06:34:20;7.07;;;6.00;;
47429;SDS011;33181;49.246;7.372;2023-08-24T06:36:46;9.43;;;6.30;;
47429;SDS011;33181;49.246;7.372;2023-08-24T06:39:12;19.60;;;6.50;;
47429;SDS011;33181;49.246;7.372;2023-08-24T06:41:38;8.20;;;6.50;;
47429;SDS011;33181;49.246;7.372;2023-08-24T06:44:04;7.50;;;6.60;;
47429;SDS011;33181;49.246;7.372;2023-08-24T06:46:30;6.90;;;6.20;;
47429;SDS011;33181;49.246;7.372;2023-08-24T06:48:56;8.20;;;5.80;;
47429;SDS011;33181;49.246;7.372;2023-08-24T06:51:22;11.40;;;6.40;;
47429;SDS011;33181;49.246;7.372;2023-08-24T06:53:49;7.57;;;6.53;;
47429;SDS011;33181;49.246;7.372;2023-08-24T06:56:15;13.73;;;8.30;;
47429;SDS011;33181;49.246;7.372;2023-08-24T06:58:42;17.23;;;7.47;;
47429;SDS011;33181;49.246;7.372;2023-08-24T07:01:08;8.50;;;6.40;;
47429;SDS011;33181;49.246;7.372;2023-08-24T07:03:34;11.70;;;5.90;;
47429;SDS011;33181;49.246;7.372;2023-08-24T07:05:59;8.90;;;6.07;;
47429;SDS011;33181;49.246;7.372;2023-08-24T07:08:25;8.93;;;5.57;;
47429;SDS011;33181;49.246;7.372;2023-08-24T07:10:51;7.67;;;6.03;;
47429;SDS011;33181;49.246;7.372;2023-08-24T07:13:17;7.37;;;6.20;;
47429;SDS011;33181;49.246;7.372;2023-08-24T07:15:42;7.30;;;5.57;;
47429;SDS011;33181;49.246;7.372;2023-08-24T07:18:10;8.73;;;5.80;;
47429;SDS011;33181;49.246;7.372;2023-08-24T07:20:36;6.83;;;6.10;;
47429;SDS011;33181;49.246;7.372;2023-08-24T07:23:02;7.33;;;5.47;;
47429;SDS011;33181;49.246;7.372;2023-08-24T07:25:28;12.27;;;6.10;;
47429;SDS011;33181;49.246;7.372;2023-08-24T07:27:57;9.43;;;5.60;;
47429;SDS011;33181;49.246;7.372;2023-08-24T07:30:25;7.77;;;5.77;;
47429;SDS011;33181;49.246;7.372;2023-08-24T07:32:52;6.73;;;5.30;;
47429;SDS011;33181;49.246;7.372;2023-08-24T07:35:18;8.47;;;5.80;;
47429;SDS011;33181;49.246;7.372;2023-08-24T07:37:45;7.70;;;6.50;;
47429;SDS011;33181;49.246;7.372;2023-08-24T07:40:14;9.17;;;6.50;;
47429;SDS011;33181;49.246;7.372;2023-08-24T07:42:47;6.83;;;5.87;;
47429;SDS011;33181;49.246;7.372;2023-08-24T07:45:19;8.73;;;5.80;;
47429;SDS011;33181;49.246;7.372;2023-08-24T07:47:46;6.50;;;5.60;;
47429;SDS011;33181;49.246;7.372;2023-08-24T07:50:12;7.77;;;5.60;;
47429;SDS011;33181;49.246;7.372;2023-08-24T07:52:38;8.23;;;5.90;;
47429;SDS011;33181;49.246;7.372;2023-08-24T07:55:04;8.20;;;5.40;;
47429;SDS011;33181;49.246;7.372;2023-08-24T07:57:32;7.73;;;5.70;;
47429;SDS011;33181;49.246;7.372;2023-08-24T08:00:02;7.37;;;5.53;;
47429;SDS011;33181;49.246;7.372;2023-08-24T08:02:29;13.53;;;6.60;;
47429;SDS011;33181;49.246;7.372;2023-08-24T08:04:57;6.83;;;5.83;;
47429;SDS011;33181;49.246;7.372;2023-08-24T08:07:24;8.43;;;5.20;;
47429;SDS011;33181;49.246;7.372;2023-08-24T08:09:51;6.33;;;5.53;;
47429;SDS011;33181;49.246;7.372;2023-08-24T08:12:16;8.07;;;5.10;;
47429;SDS011;33181;49.246;7.372;2023-08-24T08:14:42;6.27;;;5.50;;
47429;SDS011;33181;49.246;7.372;2023-08-24T08:17:08;8.30;;;5.57;;
47429;SDS011;33181;49.246;7.372;2023-08-24T08:19:34;10.30;;;6.20;;
47429;SDS011;33181;49.246;7.372;2023-08-24T08:22:02;7.37;;;5.30;;
47429;SDS011;33181;49.246;7.372;2023-08-24T08:24:29;7.70;;;5.90;;
47429;SDS011;33181;49.246;7.372;2023-08-24T08:26:55;6.50;;;5.50;;
47429;SDS011;33181;49.246;7.372;2023-08-24T08:29:22;6.87;;;5.43;;
47429;SDS011;33181;49.246;7.372;2023-08-24T08:31:47;10.10;;;6.23;;
47429;SDS011;33181;49.246;7.372;2023-08-24T08:34:14;7.27;;;5.33;;
47429;SDS011;33181;49.246;7.372;2023-08-24T08:36:39;10.17;;;5.10;;
47429;SDS011;33181;49.246;7.372;2023-08-24T08:39:05;7.33;;;5.47;;
47429;SDS011;33181;49.246;7.372;2023-08-24T08:41:33;8.00;;;5.53;;
47429;SDS011;33181;49.246;7.372;2023-08-24T08:44:06;6.80;;;5.53;;
47429;SDS011;33181;49.246;7.372;2023-08-24T08:46:34;8.53;;;5.40;;
47429;SDS011;33181;49.246;7.372;2023-08-24T08:49:00;9.03;;;5.90;;
47429;SDS011;33181;49.246;7.372;2023-08-24T08:51:26;7.27;;;5.77;;
47429;SDS011;33181;49.246;7.372;2023-08-24T08:53:53;10.40;;;5.57;;
47429;SDS011;33181;49.246;7.372;2023-08-24T08:56:19;8.00;;;5.57;;
47429;SDS011;33181;49.246;7.372;2023-08-24T08:58:46;10.87;;;5.50;;
47429;SDS011;33181;49.246;7.372;2023-08-24T09:01:13;9.70;;;5.80;;
47429;SDS011;33181;49.246;7.372;2023-08-24T09:03:39;7.40;;;5.53;;
47429;SDS011;33181;49.246;7.372;2023-08-24T09:06:06;9.03;;;5.43;;
47429;SDS011;33181;49.246;7.372;2023-08-24T09:08:31;11.83;;;5.57;;
47429;SDS011;33181;49.246;7.372;2023-08-24T09:11:00;9.00;;;5.70;;
47429;SDS011;33181;49.246;7.372;2023-08-24T09:13:27;6.10;;;5.13;;
47429;SDS011;33181;49.246;7.372;2023-08-24T09:15:54;9.53;;;5.53;;
47429;SDS011;33181;49.246;7.372;2023-08-24T09:18:36;6.27;;;5.63;;
47429;SDS011;33181;49.246;7.372;2023-08-24T09:21:08;8.30;;;5.50;;
47429;SDS011;33181;49.246;7.372;2023-08-24T09:23:34;12.53;;;5.80;;
47429;SDS011;33181;49.246;7.372;2023-08-24T09:26:01;7.80;;;5.50;;
47429;SDS011;33181;49.246;7.372;2023-08-24T09:28:27;5.70;;;5.10;;
47429;SDS011;33181;49.246;7.372;2023-08-24T09:30:53;9.87;;;5.47;;
47429;SDS011;33181;49.246;7.372;2023-08-24T09:33:22;5.97;;;5.23;;
47429;SDS011;33181;49.246;7.372;2023-08-24T09:35:54;6.80;;;5.10;;
47429;SDS011;33181;49.246;7.372;2023-08-24T09:38:26;7.10;;;5.17;;
47429;SDS011;33181;49.246;7.372;2023-08-24T09:40:53;7.60;;;4.93;;
47429;SDS011;33181;49.246;7.372;2023-08-24T09:43:20;5.43;;;4.73;;
47429;SDS011;33181;49.246;7.372;2023-08-24T09:45:51;8.13;;;5.30;;
47429;SDS011;33181;49.246;7.372;2023-08-24T09:48:18;6.60;;;4.80;;
47429;SDS011;33181;49.246;7.372;2023-08-24T09:50:45;5.60;;;5.00;;
47429;SDS011;33181;49.246;7.372;2023-08-24T09:53:19;10.27;;;4.97;;
47429;SDS011;33181;49.246;7.372;2023-08-24T09:56:08;7.80;;;4.83;;
47429;SDS011;33181;49.246;7.372;2023-08-24T09:58:34;8.27;;;4.97;;
47429;SDS011;33181;49.246;7.372;2023-08-24T10:01:00;6.37;;;4.77;;
47429;SDS011;33181;49.246;7.372;2023-08-24T10:03:28;5.10;;;4.60;;
47429;SDS011;33181;49.246;7.372;2023-08-24T10:05:57;6.53;;;4.97;;
47429;SDS011;33181;49.246;7.372;2023-08-24T10:08:26;8.60;;;5.33;;
47429;SDS011;33181;49.246;7.372;2023-08-24T10:10:55;8.27;;;5.10;;
47429;SDS011;33181;49.246;7.372;2023-08-24T10:16:32;6.33;;;4.90;;
47429;SDS011;33181;49.246;7.372;2023-08-24T10:19:01;6.00;;;4.97;;
47429;SDS011;33181;49.246;7.372;2023-08-24T10:21:30;9.77;;;5.17;;
47429;SDS011;33181;49.246;7.372;2023-08-24T10:23:57;6.00;;;5.00;;
47429;SDS011;33181;49.246;7.372;2023-08-24T10:26:23;9.60;;;4.70;;
47429;SDS011;33181;49.246;7.372;2023-08-24T10:28:49;7.70;;;4.93;;
47429;SDS011;33181;49.246;7.372;2023-08-24T10:31:19;5.47;;;4.83;;
47429;SDS011;33181;49.246;7.372;2023-08-24T10:33:46;6.60;;;4.97;;
47429;SDS011;33181;49.246;7.372;2023-08-24T10:36:12;8.03;;;4.80;;
47429;SDS011;33181;49.246;7.372;2023-08-24T10:38:42;6.40;;;5.10;;
47429;SDS011;33181;49.246;7.372;2023-08-24T10:41:08;7.20;;;5.17;;
47429;SDS011;33181;49.246;7.372;2023-08-24T10:43:39;6.80;;;5.23;;
47429;SDS011;33181;49.246;7.372;2023-08-24T10:46:12;6.23;;;5.30;;
47429;SDS011;33181;49.246;7.372;2023-08-24T10:53:43;7.80;;;5.73;;
47429;SDS011;33181;49.246;7.372;2023-08-24T10:56:11;6.37;;;5.23;;
47429;SDS011;33181;49.246;7.372;2023-08-24T10:58:44;9.83;;;5.80;;
47429;SDS011;33181;49.246;7.372;2023-08-24T11:01:18;6.10;;;5.10;;
47429;SDS011;33181;49.246;7.372;2023-08-24T11:03:50;6.73;;;5.30;;
47429;SDS011;33181;49.246;7.372;2023-08-24T11:06:20;6.27;;;5.67;;
47429;SDS011;33181;49.246;7.372;2023-08-24T11:08:48;6.90;;;5.90;;
47429;SDS011;33181;49.246;7.372;2023-08-24T11:11:18;6.87;;;5.43;;
47429;SDS011;33181;49.246;7.372;2023-08-24T11:16:47;6.10;;;5.50;;
47429;SDS011;33181;49.246;7.372;2023-08-24T11:19:14;6.80;;;5.57;;
47429;SDS011;33181;49.246;7.372;2023-08-24T11:21:41;8.00;;;5.87;;
47429;SDS011;33181;49.246;7.372;2023-08-24T11:24:09;7.07;;;5.57;;
47429;SDS011;33181;49.246;7.372;2023-08-24T11:26:42;6.33;;;5.63;;
47429;SDS011;33181;49.246;7.372;2023-08-24T11:29:10;8.63;;;5.63;;
47429;SDS011;33181;49.246;7.372;2023-08-24T11:31:36;6.27;;;5.60;;
47429;SDS011;33181;49.246;7.372;2023-08-24T11:34:03;8.70;;;5.60;;
47429;SDS011;33181;49.246;7.372;2023-08-24T11:39:28;6.27;;;5.67;;
47429;SDS011;33181;49.246;7.372;2023-08-24T11:44:28;8.50;;;6.03;;
47429;SDS011;33181;49.246;7.372;2023-08-24T11:46:55;10.63;;;6.40;;
47429;SDS011;33181;49.246;7.372;2023-08-24T11:49:25;6.60;;;5.80;;
47429;SDS011;33181;49.246;7.372;2023-08-24T11:51:51;5.70;;;5.07;;
47429;SDS011;33181;49.246;7.372;2023-08-24T11:54:20;7.47;;;5.97;;
47429;SDS011;33181;49.246;7.372;2023-08-24T11:56:46;8.20;;;6.10;;
47429;SDS011;33181;49.246;7.372;2023-08-24T11:59:12;6.60;;;5.83;;
47429;SDS011;33181;49.246;7.372;2023-08-24T12:01:40;10.37;;;6.37;;
47429;SDS011;33181;49.246;7.372;2023-08-24T12:04:07;7.80;;;6.03;;
47429;SDS011;33181;49.246;7.372;2023-08-24T12:06:33;9.73;;;6.00;;
47429;SDS011;33181;49.246;7.372;2023-08-24T12:08:59;7.03;;;5.90;;
47429;SDS011;33181;49.246;7.372;2023-08-24T12:11:26;7.53;;;6.00;;
47429;SDS011;33181;49.246;7.372;2023-08-24T12:13:53;8.20;;;5.93;;
47429;SDS011;33181;49.246;7.372;2023-08-24T12:16:20;10.00;;;5.87;;
47429;SDS011;33181;49.246;7.372;2023-08-24T12:18:51;10.00;;;5.80;;
47429;SDS011;33181;49.246;7.372;2023-08-24T12:21:24;7.60;;;6.27;;
47429;SDS011;33181;49.246;7.372;2023-08-24T12:23:58;8.27;;;6.00;;
47429;SDS011;33181;49.246;7.372;2023-08-24T12:26:34;6.90;;;6.20;;
47429;SDS011;33181;49.246;7.372;2023-08-24T12:29:01;10.20;;;6.10;;
47429;SDS011;33181;49.246;7.372;2023-08-24T12:31:34;7.70;;;5.87;;
47429;SDS011;33181;49.246;7.372;2023-08-24T12:34:01;7.27;;;5.70;;
47429;SDS011;33181;49.246;7.372;2023-08-24T12:36:29;8.63;;;6.60;;
47429;SDS011;33181;49.246;7.372;2023-08-24T12:39:01;8.27;;;6.20;;
47429;SDS011;33181;49.246;7.372;2023-08-24T12:41:29;8.27;;;5.87;;
47429;SDS011;33181;49.246;7.372;2023-08-24T12:43:54;7.03;;;6.33;;
47429;SDS011;33181;49.246;7.372;2023-08-24T12:46:20;10.90;;;6.20;;
47429;SDS011;33181;49.246;7.372;2023-08-24T12:48:46;6.67;;;6.07;;
47429;SDS011;33181;49.246;7.372;2023-08-24T12:51:12;7.13;;;6.40;;
47429;SDS011;33181;49.246;7.372;2023-08-24T12:53:38;17.60;;;6.90;;
47429;SDS011;33181;49.246;7.372;2023-08-24T12:56:03;9.43;;;5.83;;
47429;SDS011;33181;49.246;7.372;2023-08-24T12:58:29;8.53;;;6.60;;
47429;SDS011;33181;49.246;7.372;2023-08-24T13:00:56;17.30;;;6.90;;
47429;SDS011;33181;49.246;7.372;2023-08-24T13:03:22;7.60;;;5.67;;
47429;SDS011;33181;49.246;7.372;2023-08-24T13:05:48;7.57;;;6.00;;
47429;SDS011;33181;49.246;7.372;2023-08-24T13:08:14;9.17;;;5.90;;
47429;SDS011;33181;49.246;7.372;2023-08-24T13:10:40;6.70;;;6.00;;
47429;SDS011;33181;49.246;7.372;2023-08-24T13:13:05;9.60;;;6.23;;
47429;SDS011;33181;49.246;7.372;2023-08-24T13:15:34;6.63;;;5.90;;
47429;SDS011;33181;49.246;7.372;2023-08-24T13:18:00;7.60;;;6.40;;
47429;SDS011;33181;49.246;7.372;2023-08-24T13:20:29;7.80;;;6.17;;
47429;SDS011;33181;49.246;7.372;2023-08-24T13:22:55;8.13;;;5.80;;
47429;SDS011;33181;49.246;7.372;2023-08-24T13:25:20;8.57;;;6.23;;
47429;SDS011;33181;49.246;7.372;2023-08-24T13:27:46;10.60;;;6.00;;
47429;SDS011;33181;49.246;7.372;2023-08-24T13:30:12;11.70;;;6.37;;
47429;SDS011;33181;49.246;7.372;2023-08-24T13:32:38;8.73;;;6.13;;
47429;SDS011;33181;49.246;7.372;2023-08-24T13:35:04;11.83;;;6.93;;
47429;SDS011;33181;49.246;7.372;2023-08-24T13:37:30;13.37;;;7.47;;
47429;SDS011;33181;49.246;7.372;2023-08-24T13:39:57;8.40;;;7.00;;
47429;SDS011;33181;49.246;7.372;2023-08-24T13:42:24;9.10;;;7.40;;
47429;SDS011;33181;49.246;7.372;2023-08-24T13:44:50;11.23;;;7.90;;
47429;SDS011;33181;49.246;7.372;2023-08-24T13:47:16;14.70;;;7.63;;
47429;SDS011;33181;49.246;7.372;2023-08-24T13:49:41;14.00;;;8.30;;
47429;SDS011;33181;49.246;7.372;2023-08-24T13:52:07;11.63;;;7.47;;
47429;SDS011;33181;49.246;7.372;2023-08-24T13:54:33;8.90;;;7.50;;
47429;SDS011;33181;49.246;7.372;2023-08-24T13:56:59;9.00;;;7.63;;
47429;SDS011;33181;49.246;7.372;2023-08-24T13:59:28;12.43;;;7.97;;
47429;SDS011;33181;49.246;7.372;2023-08-24T14:01:54;12.33;;;9.00;;
47429;SDS011;33181;49.246;7.372;2023-08-24T14:04:20;11.50;;;8.23;;
47429;SDS011;33181;49.246;7.372;2023-08-24T14:06:46;10.73;;;8.30;;
47429;SDS011;33181;49.246;7.372;2023-08-24T14:09:13;9.43;;;8.03;;
47429;SDS011;33181;49.246;7.372;2023-08-24T14:11:39;9.70;;;8.40;;
47429;SDS011;33181;49.246;7.372;2023-08-24T14:14:05;12.30;;;8.77;;
47429;SDS011;33181;49.246;7.372;2023-08-24T14:16:31;9.00;;;7.90;;
47429;SDS011;33181;49.246;7.372;2023-08-24T14:18:58;9.40;;;8.37;;
47429;SDS011;33181;49.246;7.372;2023-08-24T14:21:24;8.70;;;7.80;;
47429;SDS011;33181;49.246;7.372;2023-08-24T14:23:51;13.70;;;8.63;;
47429;SDS011;33181;49.246;7.372;2023-08-24T14:26:17;9.67;;;8.53;;
47429;SDS011;33181;49.246;7.372;2023-08-24T14:28:47;12.47;;;8.40;;
47429;SDS011;33181;49.246;7.372;2023-08-24T14:31:20;8.60;;;7.50;;
47429;SDS011;33181;49.246;7.372;2023-08-24T14:33:47;14.57;;;8.43;;
47429;SDS011;33181;49.246;7.372;2023-08-24T14:36:13;10.10;;;8.90;;
47429;SDS011;33181;49.246;7.372;2023-08-24T14:38:39;11.73;;;8.43;;
47429;SDS011;33181;49.246;7.372;2023-08-24T14:41:06;12.33;;;8.03;;
47429;SDS011;33181;49.246;7.372;2023-08-24T14:43:36;8.97;;;8.07;;
47429;SDS011;33181;49.246;7.372;2023-08-24T14:46:02;8.80;;;7.87;;
47429;SDS011;33181;49.246;7.372;2023-08-24T14:48:28;8.50;;;7.60;;
47429;SDS011;33181;49.246;7.372;2023-08-24T14:50:55;8.40;;;7.37;;
47429;SDS011;33181;49.246;7.372;2023-08-24T14:53:24;11.10;;;8.10;;
47429;SDS011;33181;49.246;7.372;2023-08-24T14:55:52;11.60;;;8.07;;
47429;SDS011;33181;49.246;7.372;2023-08-24T14:58:22;10.07;;;7.63;;
47429;SDS011;33181;49.246;7.372;2023-08-24T15:00:49;8.37;;;7.47;;
47429;SDS011;33181;49.246;7.372;2023-08-24T15:03:17;12.00;;;7.77;;